CheckWX is a tool to help pilots better visualize weather data.  It is not intended as a substitute for an official pre-flight weather briefing.

06:19:47 UTC

HTDA METAR
Julius Nyerere International Airport
Dar es Salaam, Tanzania
Current

11 hours ago

HTDA 221900Z 27004KT 9999 FEW012 FEW014CB 26/25 Q1011 NOSIG
Observed
Apr-22 @ 19:00 UTC
Wind
  • 270° at 4 KTS
Visibility
10,000+ meters
Flight Rules
VFR
Cloud Levels
  • Few at 1,200' AGL
  • Few at 1,400' AGL
Temperature
26°C / 79°F
Dewpoint
25°C / 77°F
Humidity
94%
Altimeter
29.85" Hg
Pressure
1010.92 hPa
Previous

12 hours ago

HTDA 221800Z 21004KT 9999 FEW012 FEW014CB 26/25 Q1010 NOSIG
Observed
Apr-22 @ 18:00 UTC
Wind
  • 210° at 4 KTS
Visibility
10,000+ meters
Flight Rules
VFR
Cloud Levels
  • Few at 1,200' AGL
  • Few at 1,400' AGL
Temperature
26°C / 79°F
Dewpoint
25°C / 77°F
Humidity
94%
Altimeter
29.82" Hg
Pressure
1009.92 hPa
Previous

13 hours ago

HTDA 221700Z 18004KT 9999 FEW012 FEW013CB 27/25 Q1010 NOSIG
Observed
Apr-22 @ 17:00 UTC
Wind
  • 180° at 4 KTS
Visibility
10,000+ meters
Flight Rules
VFR
Cloud Levels
  • Few at 1,200' AGL
  • Few at 1,300' AGL
Temperature
27°C / 81°F
Dewpoint
25°C / 77°F
Heat Index
31°C / 88°F
Humidity
89%
Altimeter
29.82" Hg
Pressure
1009.92 hPa